Time;durP1;ratioP1;P1;durP2;ratioP2;P2;SDS_P1;SDS_P2;PMS_P1;PMS_P2;Temp;Humidity;BMP_temperature;BMP_pressure;BME280_temperature;BME280_humidity;BME280_pressure;Samples;Min_cycle;Max_cycle;Signal;HPM_P1;HPM_P2
2023/08/21 00:01:18;;;;;;;110.07;104.40;;;23.50;99.90;;;;;;5014936;28;20041;-78
2023/08/21 00:03:44;;;;;;;95.97;91.38;;;23.40;99.90;;;;;;5015242;28;20026;-78
2023/08/21 00:06:10;;;;;;;121.15;115.15;;;23.40;99.90;;;;;;5014089;28;20038;-78
2023/08/21 00:08:36;;;;;;;112.80;106.95;;;23.30;99.90;;;;;;5014613;28;20026;-77
2023/08/21 00:11:02;;;;;;;103.78;98.50;;;23.20;99.90;;;;;;5015250;28;20045;-78
2023/08/21 00:13:29;;;;;;;109.55;104.00;;;23.20;99.90;;;;;;5015370;28;20026;-78
2023/08/21 00:15:55;;;;;;;82.47;78.22;;;23.30;99.90;;;;;;5014593;28;20038;-78
2023/08/21 00:18:21;;;;;;;87.03;82.63;;;23.30;99.90;;;;;;5015523;28;20049;-77
2023/08/21 00:20:47;;;;;;;80.40;76.38;;;23.20;99.90;;;;;;5015061;28;20034;-78
2023/08/21 00:23:14;;;;;;;68.68;65.25;;;23.20;99.90;;;;;;5015240;28;20037;-77
2023/08/21 00:25:40;;;;;;;126.63;120.05;;;23.10;99.90;;;;;;5013645;28;20033;-77
2023/08/21 00:28:06;;;;;;;135.23;128.27;;;23.00;99.90;;;;;;5015346;28;20038;-78
2023/08/21 00:30:32;;;;;;;130.63;124.13;;;23.10;99.90;;;;;;5014352;28;20038;-77
2023/08/21 00:32:58;;;;;;;146.57;139.13;;;23.30;99.90;;;;;;5014662;28;20053;-78
2023/08/21 00:35:24;;;;;;;138.13;131.38;;;23.30;99.90;;;;;;5014437;28;20050;-78
2023/08/21 00:37:50;;;;;;;208.80;198.68;;;23.30;99.90;;;;;;5015142;28;20391;-78
2023/08/21 00:40:17;;;;;;;167.93;159.85;;;23.20;99.90;;;;;;5014741;28;20034;-78
2023/08/21 00:42:43;;;;;;;178.93;169.88;;;23.20;99.90;;;;;;5014882;28;20036;-79
2023/08/21 00:45:09;;;;;;;114.68;108.82;;;23.10;99.90;;;;;;5014215;28;20038;-78
2023/08/21 00:47:35;;;;;;;153.80;146.30;;;23.00;99.90;;;;;;5013020;28;20026;-78
2023/08/21 00:50:01;;;;;;;138.18;131.52;;;22.90;99.90;;;;;;5013360;28;20038;-78
2023/08/21 00:52:28;;;;;;;187.50;178.23;;;22.90;99.90;;;;;;5013275;28;20491;-78
2023/08/21 00:54:54;;;;;;;78.45;74.43;;;22.80;99.90;;;;;;5013213;28;20040;-78
2023/08/21 00:57:20;;;;;;;225.95;215.13;;;22.80;99.90;;;;;;5013241;28;20034;-77
2023/08/21 00:59:47;;;;;;;129.07;122.80;;;22.80;99.90;;;;;;5013033;28;20026;-79
2023/08/21 01:02:13;;;;;;;171.73;162.90;;;22.80;99.90;;;;;;5013763;28;20502;-78
2023/08/21 01:04:39;;;;;;;367.75;347.92;;;22.80;99.90;;;;;;5013269;28;20034;-77
2023/08/21 01:07:09;;;;;;;219.50;208.52;;;22.90;99.90;;;;;;5013023;28;20030;-78
2023/08/21 01:09:45;;;;;;;232.10;221.27;;;23.00;99.90;;;;;;5014604;28;20045;-78
2023/08/21 01:12:46;;;;;;;88.07;83.65;;;23.10;99.90;;;;;;5012871;28;20038;-78
2023/08/21 01:15:12;;;;;;;117.35;111.60;;;23.10;99.90;;;;;;5012081;28;20038;-78
2023/08/21 01:17:38;;;;;;;147.00;139.93;;;22.90;99.90;;;;;;5013101;28;20034;-78
2023/08/21 01:20:06;;;;;;;143.73;136.80;;;22.90;99.90;;;;;;5012994;28;20391;-78
2023/08/21 01:22:36;;;;;;;150.73;143.50;;;22.80;99.90;;;;;;5012641;28;20037;-78
2023/08/21 01:25:03;;;;;;;134.65;128.07;;;22.70;99.90;;;;;;5013800;28;20053;-78
2023/08/21 01:27:29;;;;;;;247.45;235.60;;;22.80;99.90;;;;;;5013711;28;20045;-77
2023/08/21 01:29:55;;;;;;;224.10;213.43;;;22.80;99.90;;;;;;5013792;28;20026;-75
2023/08/21 01:32:41;;;;;;;174.43;165.98;;;22.70;99.90;;;;;;5013074;28;20034;-77
2023/08/21 01:35:07;;;;;;;170.25;162.00;;;22.70;99.90;;;;;;4993106;28;20030;-78
2023/08/21 01:37:33;;;;;;;175.48;167.07;;;22.70;99.90;;;;;;5012542;28;20038;-78
2023/08/21 01:39:59;;;;;;;150.73;143.35;;;22.80;99.90;;;;;;5012729;28;20383;-77
2023/08/21 01:42:26;;;;;;;121.47;115.25;;;22.80;99.90;;;;;;5014111;28;20042;-78
2023/08/21 01:44:52;;;;;;;111.55;105.88;;;22.80;99.90;;;;;;5013326;28;20033;-78
2023/08/21 01:47:18;;;;;;;106.43;101.13;;;22.90;99.90;;;;;;5013272;28;20383;-77
2023/08/21 01:49:44;;;;;;;109.20;103.60;;;22.80;99.90;;;;;;5013427;28;20022;-78
2023/08/21 01:52:10;;;;;;;89.28;84.70;;;22.70;99.90;;;;;;5013255;28;20054;-78
2023/08/21 01:54:36;;;;;;;115.95;110.03;;;22.60;99.90;;;;;;5012257;28;20391;-77
2023/08/21 01:57:03;;;;;;;102.60;97.22;;;22.50;99.90;;;;;;5012801;28;20054;-78
2023/08/21 01:59:29;;;;;;;99.38;94.47;;;22.60;99.90;;;;;;5005142;28;20034;-78
2023/08/21 02:01:55;;;;;;;111.65;106.05;;;22.60;99.90;;;;;;5004766;28;20041;-78
2023/08/21 02:04:21;;;;;;;121.20;114.90;;;22.60;99.90;;;;;;5011827;28;20022;-78
2023/08/21 02:06:47;;;;;;;108.35;103.03;;;22.50;99.90;;;;;;5011464;28;20042;-78
2023/08/21 02:09:13;;;;;;;128.82;122.03;;;22.50;99.90;;;;;;5011967;28;20665;-78
2023/08/21 02:11:39;;;;;;;94.80;89.95;;;22.40;99.90;;;;;;5011495;28;20041;-78
2023/08/21 02:14:05;;;;;;;109.13;103.50;;;22.40;99.90;;;;;;5011443;28;20026;-77
2023/08/21 02:16:32;;;;;;;100.80;95.30;;;22.40;99.90;;;;;;5010961;28;20049;-77
2023/08/21 02:18:58;;;;;;;118.78;112.72;;;22.40;99.90;;;;;;5011733;28;20025;-78
2023/08/21 02:21:25;;;;;;;89.43;84.63;;;22.40;99.90;;;;;;5011438;28;20041;-78
2023/08/21 02:23:51;;;;;;;121.03;114.78;;;22.30;99.90;;;;;;5011538;28;20384;-78
2023/08/21 02:26:17;;;;;;;96.50;91.57;;;22.40;99.90;;;;;;5011104;28;20029;-78
2023/08/21 02:28:46;;;;;;;65.30;61.95;;;22.40;99.90;;;;;;5011378;28;20100;-77
2023/08/21 02:31:12;;;;;;;75.70;71.95;;;22.30;99.90;;;;;;5011122;28;20487;-77
2023/08/21 02:33:38;;;;;;;61.10;57.55;;;22.20;99.90;;;;;;5011773;28;20038;-77
2023/08/21 02:36:07;;;;;;;32.92;30.95;;;22.10;99.90;;;;;;5011244;28;20045;-78
2023/08/21 02:38:33;;;;;;;35.38;33.03;;;22.00;99.90;;;;;;5013103;28;20049;-77
2023/08/21 02:40:59;;;;;;;47.70;44.97;;;22.10;99.90;;;;;;5012641;28;20026;-78
2023/08/21 02:43:25;;;;;;;60.97;57.35;;;22.10;99.90;;;;;;5012457;28;20026;-77
2023/08/21 02:45:51;;;;;;;43.03;40.63;;;22.20;99.90;;;;;;5012170;28;20034;-77
2023/08/21 02:48:17;;;;;;;88.95;83.95;;;22.10;99.90;;;;;;5012663;28;20394;-78
2023/08/21 02:50:43;;;;;;;52.08;48.85;;;22.10;99.90;;;;;;5012274;28;20123;-78
2023/08/21 02:53:09;;;;;;;34.13;32.13;;;22.10;99.90;;;;;;5012596;28;20049;-78
2023/08/21 02:55:35;;;;;;;33.50;30.90;;;22.00;99.90;;;;;;5012320;28;20645;-78
2023/08/21 02:58:02;;;;;;;34.42;32.35;;;22.10;99.90;;;;;;5012209;28;20038;-78
2023/08/21 03:00:28;;;;;;;41.50;38.90;;;22.20;99.90;;;;;;5012170;28;20443;-78
2023/08/21 03:02:54;;;;;;;33.38;31.23;;;22.10;99.90;;;;;;5011288;28;20033;-78
2023/08/21 03:05:20;;;;;;;30.25;27.98;;;22.10;99.90;;;;;;5012226;28;20394;-77
2023/08/21 03:07:47;;;;;;;41.92;39.47;;;22.20;99.90;;;;;;5012564;28;20026;-78
2023/08/21 03:10:13;;;;;;;61.35;57.97;;;22.30;99.90;;;;;;5012460;28;20038;-78
2023/08/21 03:12:39;;;;;;;44.95;42.13;;;22.30;99.90;;;;;;5015496;28;20025;-79
2023/08/21 03:15:05;;;;;;;49.58;46.88;;;22.10;99.90;;;;;;5016414;28;20045;-77
2023/08/21 03:17:31;;;;;;;43.42;40.85;;;22.00;99.90;;;;;;5015944;28;20042;-77
2023/08/21 03:19:58;;;;;;;38.10;35.90;;;22.00;99.90;;;;;;5016395;28;20387;-78
2023/08/21 03:22:24;;;;;;;40.28;37.78;;;22.00;99.90;;;;;;5016172;28;20038;-78
2023/08/21 03:24:50;;;;;;;37.58;35.28;;;21.90;99.90;;;;;;5016258;28;20033;-78
2023/08/21 03:27:17;;;;;;;38.30;35.90;;;22.00;99.90;;;;;;5014447;28;20494;-77
2023/08/21 03:29:48;;;;;;;38.08;35.72;;;22.10;99.90;;;;;;5016416;28;20030;-78
2023/08/21 03:32:15;;;;;;;43.53;40.95;;;22.20;99.90;;;;;;5015913;28;20415;-78
2023/08/21 03:34:42;;;;;;;55.40;52.40;;;22.10;99.90;;;;;;5015911;28;20408;-77
2023/08/21 03:37:08;;;;;;;43.05;40.35;;;22.10;99.90;;;;;;5015896;28;20056;-78
2023/08/21 03:39:34;;;;;;;59.95;56.78;;;22.00;99.90;;;;;;5015987;28;20045;-78
2023/08/21 03:42:00;;;;;;;71.13;67.07;;;21.90;99.90;;;;;;5015378;28;20057;-78
2023/08/21 03:44:26;;;;;;;49.78;47.00;;;22.00;99.90;;;;;;5016063;28;20026;-78
2023/08/21 03:46:52;;;;;;;44.65;42.28;;;22.10;99.90;;;;;;5015201;28;20397;-78
2023/08/21 03:49:18;;;;;;;62.63;59.28;;;22.00;99.90;;;;;;5015785;28;20026;-77
2023/08/21 03:51:44;;;;;;;60.72;57.45;;;22.00;99.90;;;;;;5014276;28;20045;-78
2023/08/21 03:54:11;;;;;;;70.68;66.70;;;21.80;99.90;;;;;;5015708;28;20034;-78
2023/08/21 03:56:37;;;;;;;91.32;86.57;;;21.80;99.90;;;;;;5015397;28;20045;-78
2023/08/21 03:59:03;;;;;;;66.50;62.97;;;21.80;99.90;;;;;;5015807;28;20022;-78
2023/08/21 04:01:29;;;;;;;88.88;83.72;;;22.00;99.90;;;;;;5014820;28;20041;-77
2023/08/21 04:03:55;;;;;;;143.57;136.15;;;22.10;99.90;;;;;;5015488;28;20037;-77
2023/08/21 04:06:21;;;;;;;156.30;148.00;;;22.20;99.90;;;;;;5015606;28;20696;-78
2023/08/21 04:08:47;;;;;;;221.80;210.52;;;22.30;99.90;;;;;;5015366;28;20026;-77
2023/08/21 04:11:13;;;;;;;252.88;239.35;;;22.40;99.90;;;;;;5015345;28;20034;-78
2023/08/21 04:13:39;;;;;;;314.67;297.70;;;22.40;99.90;;;;;;5015702;28;20395;-78
2023/08/21 04:16:05;;;;;;;371.73;350.88;;;22.50;99.90;;;;;;5014569;28;20042;-78
2023/08/21 04:18:32;;;;;;;216.20;205.35;;;22.40;99.90;;;;;;5015586;28;20057;-77
2023/08/21 04:20:58;;;;;;;369.25;349.15;;;22.20;99.90;;;;;;5014995;28;20033;-78
2023/08/21 04:23:24;;;;;;;77.57;73.10;;;22.10;99.90;;;;;;5014121;28;20022;-78
2023/08/21 04:25:50;;;;;;;106.82;101.20;;;22.10;99.90;;;;;;5014930;28;20017;-78
2023/08/21 04:28:16;;;;;;;52.58;49.58;;;22.10;99.90;;;;;;5015152;28;20037;-78
2023/08/21 04:30:42;;;;;;;59.00;55.75;;;22.00;99.90;;;;;;5014698;28;20392;-79
2023/08/21 04:33:08;;;;;;;74.82;70.57;;;22.10;99.90;;;;;;5014971;28;20034;-78
2023/08/21 04:35:38;;;;;;;50.80;47.90;;;22.20;99.90;;;;;;5013503;28;20025;-78
2023/08/21 04:38:04;;;;;;;40.80;38.25;;;22.10;99.90;;;;;;5014728;28;20046;-78
2023/08/21 04:40:30;;;;;;;56.22;53.08;;;22.10;99.90;;;;;;5014622;28;20030;-78
2023/08/21 04:42:57;;;;;;;66.03;62.47;;;22.20;99.90;;;;;;5014905;28;20042;-79
2023/08/21 04:45:23;;;;;;;59.55;56.28;;;22.00;99.90;;;;;;5013369;28;20042;-78
2023/08/21 04:47:49;;;;;;;56.20;53.05;;;21.90;99.90;;;;;;5014773;28;20490;-79
2023/08/21 04:50:15;;;;;;;57.53;54.35;;;21.90;99.90;;;;;;5014656;28;20030;-79
2023/08/21 04:52:41;;;;;;;37.25;34.85;;;21.90;99.90;;;;;;5014086;28;20042;-79
2023/08/21 04:55:08;;;;;;;40.85;38.38;;;21.70;99.90;;;;;;5013401;28;20387;-78
2023/08/21 04:57:34;;;;;;;38.08;35.58;;;21.70;99.90;;;;;;5014228;28;20048;-78
2023/08/21 05:00:00;;;;;;;54.15;50.92;;;21.50;99.90;;;;;;5014747;28;20037;-78
2023/08/21 05:02:26;;;;;;;48.83;46.00;;;21.60;99.90;;;;;;5014120;28;20479;-79
2023/08/21 05:04:52;;;;;;;41.08;38.42;;;21.80;99.90;;;;;;5014349;28;20037;-79
2023/08/21 05:07:18;;;;;;;41.00;38.58;;;21.90;99.90;;;;;;5014258;28;20046;-78
2023/08/21 05:09:44;;;;;;;42.70;39.97;;;21.80;99.90;;;;;;5014361;28;20459;-79
2023/08/21 05:12:10;;;;;;;49.55;46.80;;;21.80;99.90;;;;;;5014186;28;20045;-78
2023/08/21 05:14:36;;;;;;;48.33;45.63;;;21.70;99.90;;;;;;5014299;28;20463;-78
2023/08/21 05:17:03;;;;;;;56.35;53.25;;;21.70;99.90;;;;;;5013726;28;20046;-78
2023/08/21 05:19:29;;;;;;;51.33;48.35;;;21.70;99.90;;;;;;5014086;28;20462;-78
2023/08/21 05:21:55;;;;;;;50.88;47.92;;;21.70;99.90;;;;;;5013578;28;20037;-78
2023/08/21 05:24:21;;;;;;;44.42;41.60;;;21.70;99.90;;;;;;5012101;28;20387;-79
2023/08/21 05:26:48;;;;;;;68.40;64.78;;;21.70;99.90;;;;;;5011072;28;20038;-79
2023/08/21 05:29:14;;;;;;;47.83;45.13;;;21.70;99.90;;;;;;5013901;28;20391;-78
2023/08/21 05:31:40;;;;;;;53.13;49.97;;;21.70;99.90;;;;;;5013140;28;20038;-78
2023/08/21 05:34:06;;;;;;;75.40;71.35;;;21.60;99.90;;;;;;5013485;28;20387;-78
2023/08/21 05:36:32;;;;;;;108.93;103.00;;;21.60;99.90;;;;;;5012664;28;20080;-78
2023/08/21 05:38:58;;;;;;;138.80;131.60;;;21.60;99.90;;;;;;5013924;28;20379;-79
2023/08/21 05:41:24;;;;;;;71.18;67.15;;;21.70;99.90;;;;;;5013513;28;20034;-78
2023/08/21 05:43:50;;;;;;;105.18;99.38;;;21.80;99.90;;;;;;5013614;28;20038;-80
2023/08/21 05:46:16;;;;;;;83.95;79.32;;;22.00;99.90;;;;;;5011538;28;20052;-79
2023/08/21 05:48:43;;;;;;;85.80;80.90;;;22.10;99.90;;;;;;5013534;28;20038;-78
2023/08/21 05:51:09;;;;;;;76.20;71.72;;;21.90;99.90;;;;;;5012874;28;20048;-78
2023/08/21 05:53:35;;;;;;;84.57;79.45;;;21.90;99.90;;;;;;5013328;28;20042;-79
2023/08/21 05:56:01;;;;;;;70.13;66.22;;;21.80;99.90;;;;;;5013362;28;20030;-78
2023/08/21 05:58:30;;;;;;;107.43;101.60;;;21.80;99.90;;;;;;5013626;28;20041;-78
2023/08/21 06:00:56;;;;;;;101.38;95.82;;;22.00;99.90;;;;;;5012939;28;20041;-77
2023/08/21 06:03:22;;;;;;;68.15;64.10;;;22.00;99.90;;;;;;5013218;28;20692;-78
2023/08/21 06:05:48;;;;;;;75.53;71.43;;;22.10;99.90;;;;;;5012839;28;20026;-79
2023/08/21 06:08:14;;;;;;;116.05;109.72;;;22.10;99.90;;;;;;5013290;28;20383;-78
2023/08/21 06:10:40;;;;;;;101.85;96.13;;;22.00;99.90;;;;;;5013004;28;20018;-78
2023/08/21 06:13:07;;;;;;;86.13;81.40;;;21.80;99.90;;;;;;5012174;28;20034;-78
2023/08/21 06:15:33;;;;;;;92.20;87.20;;;21.70;99.90;;;;;;5012443;28;20034;-77
2023/08/21 06:17:59;;;;;;;51.90;49.13;;;21.60;99.90;;;;;;5011936;28;20042;-77
2023/08/21 06:20:26;;;;;;;65.50;61.50;;;21.40;99.90;;;;;;5012613;28;20033;-78
2023/08/21 06:22:52;;;;;;;57.60;54.05;;;21.40;99.90;;;;;;5012712;28;20396;-78
2023/08/21 06:25:19;;;;;;;100.90;95.35;;;21.40;99.90;;;;;;5012891;28;20037;-78
2023/08/21 06:27:45;;;;;;;177.48;168.48;;;21.60;99.90;;;;;;5013262;28;20038;-78
2023/08/21 06:30:11;;;;;;;131.68;124.60;;;21.70;99.90;;;;;;5012328;28;20510;-77
2023/08/21 06:32:38;;;;;;;83.57;79.00;;;21.80;99.90;;;;;;5013043;28;20034;-78
2023/08/21 06:35:04;;;;;;;68.70;65.05;;;22.10;99.90;;;;;;5012507;28;20375;-79
2023/08/21 06:37:30;;;;;;;146.27;138.55;;;22.30;99.90;;;;;;5012627;28;20325;-78
2023/08/21 06:39:56;;;;;;;104.45;98.72;;;22.40;99.90;;;;;;5012878;28;20026;-75
2023/08/21 06:42:22;;;;;;;241.10;228.02;;;22.60;99.90;;;;;;5012529;28;20096;-77
2023/08/21 06:44:48;;;;;;;156.52;148.30;;;22.70;99.90;;;;;;5012743;28;20360;-79
2023/08/21 06:47:14;;;;;;;166.68;157.90;;;22.70;99.90;;;;;;5011763;28;20038;-79
2023/08/21 06:49:40;;;;;;;142.40;134.82;;;22.70;99.90;;;;;;5012643;28;20056;-79
2023/08/21 06:52:07;;;;;;;198.85;188.55;;;22.90;99.90;;;;;;5012235;28;20045;-78
2023/08/21 06:54:33;;;;;;;118.43;112.38;;;23.00;99.90;;;;;;5012721;28;20025;-78
2023/08/21 06:56:59;;;;;;;175.23;165.98;;;23.20;99.90;;;;;;5012442;28;20038;-78
2023/08/21 06:59:25;;;;;;;125.72;118.95;;;23.60;99.90;;;;;;5012610;28;20030;-78
2023/08/21 07:01:52;;;;;;;161.20;152.88;;;23.60;99.90;;;;;;5011914;28;20042;-78
2023/08/21 07:04:18;;;;;;;159.57;151.30;;;23.80;99.90;;;;;;5012384;28;20041;-78
2023/08/21 07:06:44;;;;;;;130.88;124.22;;;23.90;99.90;;;;;;5012755;28;20042;-78
2023/08/21 07:09:10;;;;;;;170.85;162.10;;;24.00;99.90;;;;;;5012532;28;20026;-79
2023/08/21 07:11:36;;;;;;;142.80;135.52;;;24.20;99.90;;;;;;5012254;28;20030;-79
2023/08/21 07:14:02;;;;;;;132.20;125.55;;;24.30;99.90;;;;;;5012483;28;20490;-78
2023/08/21 07:16:28;;;;;;;130.00;123.45;;;24.30;99.90;;;;;;5011854;28;20042;-78
2023/08/21 07:18:55;;;;;;;132.13;125.53;;;24.20;99.90;;;;;;5011936;28;20041;-78
2023/08/21 07:21:21;;;;;;;127.35;120.57;;;24.20;99.90;;;;;;5012196;28;20037;-78
2023/08/21 07:23:47;;;;;;;153.52;145.88;;;24.30;99.90;;;;;;5012426;28;20026;-78
2023/08/21 07:26:13;;;;;;;132.02;125.40;;;24.30;99.90;;;;;;5012131;28;20033;-79
2023/08/21 07:28:39;;;;;;;102.38;97.15;;;24.50;99.90;;;;;;5012295;28;20510;-78
2023/08/21 07:31:05;;;;;;;110.07;104.47;;;24.70;99.90;;;;;;5011559;28;20038;-77
2023/08/21 07:33:31;;;;;;;110.07;104.28;;;24.80;99.90;;;;;;5011799;28;20375;-77
2023/08/21 07:36:01;;;;;;;118.40;112.13;;;24.70;99.90;;;;;;5012107;28;20056;-77
2023/08/21 07:38:27;;;;;;;100.72;95.65;;;24.90;99.90;;;;;;5012421;28;20436;-77
2023/08/21 07:41:07;;;;;;;100.45;94.72;;;25.00;99.90;;;;;;5011808;28;20034;-77
2023/08/21 07:43:33;;;;;;;99.47;94.15;;;25.10;99.90;;;;;;5012441;28;20045;-78
2023/08/21 07:46:06;;;;;;;179.63;170.70;;;25.00;99.90;;;;;;5011925;28;20026;-77
2023/08/21 07:48:33;;;;;;;99.80;94.45;;;25.10;99.90;;;;;;5010896;28;20034;-77
2023/08/21 07:50:59;;;;;;;128.10;121.30;;;24.90;99.90;;;;;;5012547;28;20038;-77
2023/08/21 07:53:25;;;;;;;123.57;117.20;;;24.70;99.90;;;;;;5011773;28;20484;-76
2023/08/21 07:55:51;;;;;;;158.75;150.63;;;24.80;99.90;;;;;;5012166;28;20037;-76
2023/08/21 07:58:18;;;;;;;156.65;148.75;;;24.80;99.90;;;;;;5012966;28;20052;-77
2023/08/21 08:00:44;;;;;;;131.55;125.05;;;24.70;99.90;;;;;;5014525;28;20034;-76
2023/08/21 08:03:11;;;;;;;150.52;142.82;;;24.90;99.90;;;;;;5015866;28;20034;-77
2023/08/21 08:05:38;;;;;;;138.15;131.05;;;24.90;99.90;;;;;;5015705;28;20034;-76
2023/08/21 08:08:04;;;;;;;158.57;150.57;;;25.10;99.90;;;;;;5015631;28;20042;-77
2023/08/21 08:10:30;;;;;;;154.85;146.95;;;25.20;99.90;;;;;;5015164;28;20037;-77
2023/08/21 08:12:56;;;;;;;154.73;146.90;;;25.50;99.90;;;;;;5015388;28;20419;-77
2023/08/21 08:15:23;;;;;;;116.57;110.65;;;25.70;99.90;;;;;;5014640;28;20042;-77
2023/08/21 08:17:53;;;;;;;108.57;102.85;;;25.70;99.90;;;;;;5015252;28;20042;-77
2023/08/21 08:20:21;;;;;;;109.10;103.13;;;25.70;99.90;;;;;;5015450;28;20481;-77
2023/08/21 08:22:47;;;;;;;113.38;106.95;;;25.60;99.90;;;;;;5015193;28;20042;-77
2023/08/21 08:25:14;;;;;;;162.75;154.50;;;25.50;99.90;;;;;;5015131;28;20474;-76
2023/08/21 08:27:40;;;;;;;165.15;156.57;;;25.60;99.90;;;;;;5015136;28;20041;-77
2023/08/21 08:30:06;;;;;;;100.97;95.53;;;25.60;99.90;;;;;;5014340;28;20030;-77
2023/08/21 08:32:32;;;;;;;128.57;121.50;;;25.70;99.90;;;;;;5014649;28;20040;-77
2023/08/21 08:34:59;;;;;;;109.25;103.30;;;25.70;99.90;;;;;;5015253;28;20034;-77
2023/08/21 08:37:25;;;;;;;90.80;86.00;;;25.80;99.90;;;;;;5014521;28;20058;-76
2023/08/21 08:39:51;;;;;;;91.22;86.03;;;25.80;99.90;;;;;;5015067;28;20360;-77
2023/08/21 08:42:17;;;;;;;106.38;100.38;;;25.70;99.90;;;;;;5014770;28;20034;-78
2023/08/21 08:44:43;;;;;;;89.80;85.15;;;25.70;99.90;;;;;;5014415;28;20053;-78
2023/08/21 08:47:12;;;;;;;103.80;98.30;;;25.70;99.90;;;;;;5014389;28;20044;-77
2023/08/21 08:49:38;;;;;;;106.47;101.07;;;25.80;99.90;;;;;;5014559;28;20029;-77
2023/08/21 08:52:05;;;;;;;101.70;96.53;;;25.80;99.90;;;;;;5014314;28;20049;-77
2023/08/21 08:54:31;;;;;;;99.47;94.35;;;25.80;99.90;;;;;;5014817;28;20025;-77
2023/08/21 08:56:58;;;;;;;91.45;86.78;;;25.80;99.90;;;;;;5014881;28;20053;-77
2023/08/21 08:59:24;;;;;;;114.40;108.38;;;26.00;99.90;;;;;;5014205;28;20037;-77
2023/08/21 09:01:50;;;;;;;136.80;129.85;;;26.40;99.90;;;;;;5013813;28;20041;-77
2023/08/21 09:04:16;;;;;;;155.70;148.00;;;26.60;99.90;;;;;;5014444;28;20030;-76
2023/08/21 09:06:42;;;;;;;146.35;138.95;;;26.80;99.90;;;;;;5014344;28;20030;-76
2023/08/21 09:09:10;;;;;;;95.13;90.32;;;27.10;99.90;;;;;;5014291;28;20042;-78
2023/08/21 09:11:37;;;;;;;184.85;175.70;;;27.00;99.90;;;;;;5013071;28;20042;-77
2023/08/21 09:14:03;;;;;;;225.90;214.95;;;27.20;99.90;;;;;;5012861;28;20041;-77
2023/08/21 09:16:29;;;;;;;251.52;238.98;;;27.30;99.90;;;;;;5014104;28;20034;-77
2023/08/21 09:18:59;;;;;;;289.58;274.73;;;27.30;99.90;;;;;;5014218;28;20038;-76
2023/08/21 09:21:27;;;;;;;207.40;197.07;;;27.40;99.90;;;;;;5014017;28;20033;-77
2023/08/21 09:23:58;;;;;;;234.73;223.15;;;27.60;99.90;;;;;;5014418;28;20056;-78
2023/08/21 09:26:24;;;;;;;205.80;195.68;;;27.60;99.90;;;;;;5013874;28;20063;-77
2023/08/21 09:28:51;;;;;;;201.15;191.25;;;27.70;99.90;;;;;;5014019;28;20463;-77
2023/08/21 09:31:22;;;;;;;191.10;181.55;;;27.70;99.90;;;;;;5012012;28;20045;-76
2023/08/21 09:34:07;;;;;;;158.52;150.68;;;27.90;99.90;;;;;;5013752;28;20045;-76
2023/08/21 09:36:33;;;;;;;205.32;195.00;;;27.80;99.90;;;;;;5012311;28;20049;-77
2023/08/21 09:39:00;;;;;;;179.18;170.20;;;27.80;99.90;;;;;;5013670;28;20061;-77
2023/08/21 09:41:26;;;;;;;187.43;178.20;;;27.90;99.90;;;;;;5013624;28;20029;-77
2023/08/21 09:43:52;;;;;;;136.90;130.07;;;28.00;99.90;;;;;;5013537;28;20419;-77
2023/08/21 09:46:24;;;;;;;139.68;132.52;;;28.30;99.80;;;;;;5012941;28;20049;-76
2023/08/21 09:48:51;;;;;;;133.93;127.18;;;28.30;99.20;;;;;;5014159;28;20614;-77
2023/08/21 09:51:17;;;;;;;152.07;144.50;;;28.20;99.10;;;;;;5011775;28;20106;-76
2023/08/21 09:53:44;;;;;;;144.70;137.40;;;28.10;99.10;;;;;;5013595;28;20044;-78
2023/08/21 09:56:11;;;;;;;149.57;142.18;;;28.20;99.30;;;;;;5013394;28;20030;-77
2023/08/21 09:58:37;;;;;;;130.07;123.47;;;28.30;99.40;;;;;;5013257;28;20037;-77
2023/08/21 10:01:13;;;;;;;142.85;135.50;;;28.40;98.70;;;;;;5012924;28;20034;-77
2023/08/21 10:03:40;;;;;;;142.00;134.75;;;28.50;98.80;;;;;;5013753;28;20037;-78
2023/08/21 10:06:08;;;;;;;147.55;140.05;;;28.60;98.90;;;;;;5013340;28;20391;-77
2023/08/21 10:08:42;;;;;;;151.38;143.88;;;28.50;98.50;;;;;;5013433;28;20389;-77
2023/08/21 10:11:08;;;;;;;189.25;179.60;;;28.50;98.80;;;;;;5013121;28;20037;-78
2023/08/21 10:13:38;;;;;;;177.38;168.23;;;28.70;99.50;;;;;;5011758;28;20042;-78
2023/08/21 10:16:07;;;;;;;194.82;184.88;;;28.70;98.80;;;;;;5011579;28;20048;-77
2023/08/21 10:18:36;;;;;;;206.40;196.32;;;28.80;99.20;;;;;;5013467;28;20038;-78
2023/08/21 10:21:19;;;;;;;218.95;208.38;;;28.90;98.80;;;;;;5012361;28;20026;-77
2023/08/21 10:23:51;;;;;;;245.07;232.68;;;28.80;98.70;;;;;;5013308;28;20050;-78
2023/08/21 10:26:21;;;;;;;200.63;190.88;;;28.90;98.80;;;;;;5012564;28;20391;-76
2023/08/21 10:28:54;;;;;;;217.90;207.05;;;28.90;98.40;;;;;;5012978;28;20034;-77
2023/08/21 10:31:35;;;;;;;198.90;189.25;;;28.90;98.50;;;;;;5012309;28;20494;-77
2023/08/21 10:34:03;;;;;;;169.90;161.48;;;29.00;98.50;;;;;;5012732;28;20025;-76
2023/08/21 10:36:44;;;;;;;148.52;141.00;;;29.10;98.20;;;;;;5012954;28;20045;-77
2023/08/21 10:39:39;;;;;;;131.05;124.45;;;29.20;98.00;;;;;;5013030;28;20408;-76
2023/08/21 10:42:14;;;;;;;135.02;128.23;;;29.20;97.90;;;;;;5011394;28;20502;-77
2023/08/21 10:44:45;;;;;;;122.57;116.45;;;29.30;97.90;;;;;;5012917;28;20393;-77
2023/08/21 10:47:23;;;;;;;143.98;136.85;;;29.50;97.80;;;;;;5012182;28;20045;-77
2023/08/21 10:49:51;;;;;;;111.50;105.65;;;29.60;98.00;;;;;;5012654;28;20029;-78
2023/08/21 10:52:22;;;;;;;100.72;95.72;;;29.80;97.70;;;;;;5012253;28;20053;-77
2023/08/21 10:54:49;;;;;;;100.18;95.03;;;29.90;97.10;;;;;;5012850;28;20044;-77
2023/08/21 10:57:16;;;;;;;113.03;107.07;;;29.80;97.10;;;;;;5012464;28;20049;-77
2023/08/21 11:00:12;;;;;;;102.68;97.20;;;29.90;96.90;;;;;;5012666;28;20033;-77
2023/08/21 11:02:40;;;;;;;103.25;98.05;;;29.80;96.60;;;;;;5007468;28;20049;-76
2023/08/21 11:05:07;;;;;;;119.13;113.25;;;29.80;96.80;;;;;;5012758;28;20034;-78
2023/08/21 11:07:49;;;;;;;104.55;99.40;;;29.80;96.20;;;;;;5012446;28;20038;-76
2023/08/21 11:10:22;;;;;;;127.50;121.30;;;29.70;96.70;;;;;;5011911;28;20026;-77
2023/08/21 11:12:49;;;;;;;141.07;133.93;;;29.80;97.30;;;;;;5012466;28;20041;-78
2023/08/21 11:15:16;;;;;;;134.70;127.72;;;29.90;96.80;;;;;;5011816;28;20041;-77
2023/08/21 11:17:50;;;;;;;144.68;137.15;;;29.90;96.70;;;;;;5012785;28;20045;-77
2023/08/21 11:20:16;;;;;;;145.77;138.60;;;29.90;96.80;;;;;;5012106;28;20018;-78
2023/08/21 11:22:42;;;;;;;127.43;121.22;;;30.10;96.30;;;;;;5011164;28;20097;-78
2023/08/21 11:25:08;;;;;;;143.90;136.82;;;30.20;95.60;;;;;;5012217;28;20038;-77
2023/08/21 11:27:34;;;;;;;150.85;143.27;;;30.20;95.90;;;;;;5012142;28;20038;-77
2023/08/21 11:30:00;;;;;;;152.75;145.25;;;30.20;96.00;;;;;;5012512;28;20395;-76
2023/08/21 11:32:26;;;;;;;161.75;153.43;;;30.10;95.80;;;;;;5012937;28;20475;-77
2023/08/21 11:34:56;;;;;;;119.75;113.90;;;30.20;95.80;;;;;;5016227;28;20037;-77
2023/08/21 11:37:24;;;;;;;104.90;99.68;;;30.30;95.60;;;;;;5015663;28;20033;-77
2023/08/21 11:39:56;;;;;;;90.72;86.25;;;30.50;96.00;;;;;;5015901;28;20037;-77
2023/08/21 11:42:33;;;;;;;94.43;89.78;;;30.70;95.40;;;;;;5015711;28;20034;-77
2023/08/21 11:44:59;;;;;;;93.75;88.80;;;30.80;95.40;;;;;;5016228;28;20034;-78
2023/08/21 11:47:32;;;;;;;89.30;84.85;;;30.90;95.60;;;;;;5015542;28;20491;-78
2023/08/21 11:50:02;;;;;;;76.75;72.80;;;30.80;95.10;;;;;;5015845;28;20029;-77
2023/08/21 11:52:31;;;;;;;73.82;70.15;;;30.70;94.90;;;;;;5014514;28;20093;-77
2023/08/21 11:54:58;;;;;;;73.55;69.88;;;30.90;94.70;;;;;;5015730;28;20053;-77
2023/08/21 11:57:24;;;;;;;83.20;79.20;;;30.90;94.30;;;;;;5015329;28;20038;-77
2023/08/21 11:59:51;;;;;;;98.90;93.95;;;30.60;94.80;;;;;;5015846;28;20392;-78
2023/08/21 12:02:18;;;;;;;84.15;80.05;;;30.60;95.00;;;;;;5014953;28;20394;-76
2023/08/21 12:04:44;;;;;;;100.80;95.88;;;30.70;94.80;;;;;;5016284;28;20041;-78
2023/08/21 12:07:11;;;;;;;86.88;82.32;;;30.60;95.30;;;;;;5015422;28;20036;-77
2023/08/21 12:09:37;;;;;;;80.20;76.18;;;30.80;94.60;;;;;;5014538;28;20033;-78
2023/08/21 12:12:04;;;;;;;90.05;85.43;;;30.70;94.40;;;;;;5015804;28;20068;-77
2023/08/21 12:14:30;;;;;;;85.32;81.07;;;30.80;94.70;;;;;;5015517;28;20045;-77
2023/08/21 12:16:56;;;;;;;79.45;75.28;;;30.90;94.50;;;;;;5014771;28;20042;-77